Airport View

Enter AWOS ICAO identifier for current METAR.

ex. KFNL

KDNS 171045Z AUTO 34007KT 10SM OVC022 05/05 A2997 RMK AO2

17 Nov 2019 10:48

Frequency: 119.95

Phone: 712-263-6558

Other Area AWOS: KHNR - KCIN - KADU - KSLB

TAF KOMA 170527Z 1706/1806 16006KT P6SM VCSH BKN100 FM170800 31007KT P6SM BKN060 FM171400 32011KT P6SM BKN100 FM172200 31004KT P6SM SCT250